AirNav   Everest Fuels
 
 1043 users online  

58MO Mercy Hospital Jefferson Heliport
Crystal City, Missouri, USA

GOING TO CRYSTAL CITY?


FAA INFORMATION EFFECTIVE 07 NOVEMBER 2019

Location

FAA Identifier: 58MO
Lat/Long: 38-11-44.0100N 090-23-36.1800W
38-11.733500N 090-23.603000W
38.1955583,-90.3933833
(estimated)
Elevation: 435 ft. / 133 m (estimated)
Variation: 02E (1985)
From city: 1 mile S of CRYSTAL CITY, MO
Time zone: UTC -6 (UTC -5 during Daylight Saving Time)
Zip code: 63028

Heliport Operations

Heliport use: Private use, MEDICAL.
Activation date: 07/1989
Control tower: no
ARTCC: KANSAS CITY CENTER
FSS: SAINT LOUIS FLIGHT SERVICE STATION
Attendance: CONTINUOUS
Wind indicator: yes
Segmented circle: yes

Nearby radio navigation aids

VOR radial/distance  VOR name  Freq  Var
FAMr345/32.2FARMINGTON VORTAC115.7001E
TOYr210/39.5TROY VORTAC116.0004E

Heliport Services

Runway Information

Helipad H1

Dimensions: 60 x 60 ft. / 18 x 18 m
Surface: concrete
Latitude: 38-11.733500N
Longitude: 090-23.603000W
Elevation: 435.0 ft.
Traffic pattern: leftleft

Heliport Ownership and Management from official FAA records

Ownership: Privately-owned
Owner: MERCY HOSPITAL JEFFERSON
HWY 61 SOUTH
CRYSTAL CITY, MO 63019
Phone 314-933-1000
Manager: JOSEPH COPUS
1400 US HIGHWAY 61
CRYSTAL CITY, MO 63019
Phone 314-933-1000
SENIOR MANAGER OF FACILITIES.

Heliport Operational Statistics

Aircraft based on the field: 1
Helicopters: 1
    

Additional Remarks

A52-H1 70' BLDG 75' NORTH; 30' TREES 100' EAST & SOUTH.
FOR CD CTC ST LOUIS APCH AT 314-890-1018.

Instrument Procedures

There are no published instrument procedures at 58MO.

Some nearby airports with instrument procedures:

KFES - Festus Memorial Airport (0 nm E)
8WC - Washington County Airport (23 nm SW)
KCPS - St Louis Downtown Airport (25 nm NE)
KFAM - Farmington Regional Airport (26 nm S)
KSUS - Spirit of St Louis Airport (31 nm NW)
 
Loc | Ops | Rwys | IFR | FBO | Links
Com | Nav | Svcs | Stats | Notes

Kansas City Aviation Department
 
Area around 58MO (Mercy Hospital Jefferson Heliport)
 
Road maps at: MapQuest Bing Google
 
Aerial photo
No photo
 
Sectional chart

 
Airport distance calculator
Flying to Mercy Hospital Jefferson Heliport? Find the distance to fly.

From to 58MO

Sunrise and sunset
Times for 17-Nov-2019
 Local
(UTC-6)
 Zulu
(UTC)
Morning civil twilight06:1812:18
Sunrise06:4612:46
Sunset16:4722:47
Evening civil twilight17:1623:16

Current date and time
Zulu (UTC)  18-Nov-2019 02:14:28
Local (UTC-6)  17-Nov-2019 20:14:28
 
METAR
KCPS 
25nm NE 
180153Z 30004KT 10SM OVC049 07/04 A2992 RMK AO2 RAE00 SLP132 P0000 T00670039 $
KFAM 
26nm S 
180202Z 30007KT 10SM FEW047 OVC065 07/02 A2992
KSUS 
30nm NW 
180154Z 26004KT 10SM FEW029 BKN040 OVC050 07/04 A2992 RMK AO2 SLP137 T00720039
KPCD 
32nm SE 
180155Z AUTO 00000KT 10SM BKN041 BKN080 BKN100 07/01 A2991 RMK AO2 T00650007
KSAR 
33nm E 
180155Z AUTO 00000KT 10SM SCT041 OVC080 07/02 A2992 RMK AO2 T00700024
KBLV 
33nm NE 
180156Z AUTO 31005KT 10SM OVC041 07/04 A2990 RMK AO2 RAB00E32 SLP132 P0000 T00660044 $
KSTL 
33nm N 
180151Z 28007KT 10SM OVC047 07/04 A2992 RMK AO2 SLP137 T00720039 $
KFYG 
37nm NW 
180155Z AUTO 33004KT 10SM BKN050 07/04 A2992 RMK AO2
KSET 
44nm N 
180154Z AUTO A2992 RMK AO2 SLPNO PWINO FZRANO $
KALN 
45nm N 
180147Z 26004KT 10SM BKN044 OVC050 05/05 A2992
TAF
KCPS 
25nm NE 
171956Z 1720/1818 22006KT P6SM BKN120 FM172300 VRB04KT 6SM -RA OVC030 TEMPO 1723/1801 4SM -RA FM180400 32006KT P6SM OVC022 FM180600 VRB04KT 5SM BR OVC022 FM181700 VRB04KT P6SM BKN035
KSUS 
30nm NW 
171955Z 1720/1818 20006KT P6SM VCSH BKN120 FM172200 VRB04KT 6SM -RA OVC030 TEMPO 1722/1724 4SM -RA FM180300 32006KT P6SM OVC022 FM180600 VRB04KT 5SM BR OVC022 FM181700 VRB04KT P6SM BKN035
NOTAMs
Click for the latest NOTAMs
NOTAMs are issued by the DoD/FAA and will open in a separate window not controlled by AirNav.

 

 
 

Would you like to see your business listed on this page?

 If your business provides an interesting product or service to pilots, flight crews, aircraft, or users of the Mercy Hospital Jefferson Heliport, you should consider listing it here.  To start the listing process, click on the button below
 
Add a business
 

Other Pages about Mercy Hospital Jefferson Heliport

Update a link
 
Copyright © AirNav, LLC. All rights reserved. Privacy Policy  Contact